sensor_id;sensor_type;location;lat;lon;timestamp;pressure;altitude;pressure_sealevel;temperature;humidity
3102;BME280;1561;42.666;23.392;2023-07-16T00:01:27;95427.25;;;24.46;100.00
3102;BME280;1561;42.666;23.392;2023-07-16T00:04:09;95434.25;;;24.52;100.00
3102;BME280;1561;42.666;23.392;2023-07-16T00:06:42;95430.22;;;24.56;100.00
3102;BME280;1561;42.666;23.392;2023-07-16T00:09:11;95428.66;;;24.42;100.00
3102;BME280;1561;42.666;23.392;2023-07-16T00:11:37;95427.81;;;24.48;100.00
3102;BME280;1561;42.666;23.392;2023-07-16T00:14:14;95429.22;;;24.70;100.00
3102;BME280;1561;42.666;23.392;2023-07-16T00:16:44;95422.19;;;24.77;100.00
3102;BME280;1561;42.666;23.392;2023-07-16T00:19:26;95413.16;;;24.67;100.00
3102;BME280;1561;42.666;23.392;2023-07-16T00:21:55;95427.63;;;24.69;100.00
3102;BME280;1561;42.666;23.392;2023-07-16T00:24:35;95429.22;;;24.70;100.00
3102;BME280;1561;42.666;23.392;2023-07-16T00:27:16;95420.34;;;24.78;100.00
3102;BME280;1561;42.666;23.392;2023-07-16T00:29:46;95415.78;;;24.60;100.00
3102;BME280;1561;42.666;23.392;2023-07-16T00:32:19;95428.44;;;24.70;100.00
3102;BME280;1561;42.666;23.392;2023-07-16T00:34:53;95420.41;;;24.45;100.00
3102;BME280;1561;42.666;23.392;2023-07-16T00:37:22;95345.13;;;24.10;100.00
3102;BME280;1561;42.666;23.392;2023-07-16T00:39:57;95416.56;;;24.54;100.00
3102;BME280;1561;42.666;23.392;2023-07-16T00:42:41;95416.16;;;24.70;100.00
3102;BME280;1561;42.666;23.392;2023-07-16T00:45:12;95427.22;;;24.53;100.00
3102;BME280;1561;42.666;23.392;2023-07-16T00:47:49;95396.47;;;24.48;100.00
3102;BME280;1561;42.666;23.392;2023-07-16T00:50:36;95423.00;;;24.52;100.00
3102;BME280;1561;42.666;23.392;2023-07-16T00:53:17;95425.22;;;24.42;100.00
3102;BME280;1561;42.666;23.392;2023-07-16T00:55:48;95422.78;;;24.53;100.00
3102;BME280;1561;42.666;23.392;2023-07-16T00:58:25;95420.22;;;24.34;100.00
3102;BME280;1561;42.666;23.392;2023-07-16T01:01:00;95423.63;;;24.41;100.00
3102;BME280;1561;42.666;23.392;2023-07-16T01:03:32;95422.78;;;24.47;100.00
3102;BME280;1561;42.666;23.392;2023-07-16T01:06:10;95415.41;;;24.37;100.00
3102;BME280;1561;42.666;23.392;2023-07-16T01:08:48;95418.00;;;24.37;100.00
3102;BME280;1561;42.666;23.392;2023-07-16T01:11:24;95425.03;;;24.24;100.00
3102;BME280;1561;42.666;23.392;2023-07-16T01:13:57;95414.38;;;24.32;100.00
3102;BME280;1561;42.666;23.392;2023-07-16T01:16:28;95426.63;;;24.38;100.00
3102;BME280;1561;42.666;23.392;2023-07-16T01:19:11;95416.19;;;24.18;100.00
3102;BME280;1561;42.666;23.392;2023-07-16T01:21:48;95431.66;;;24.13;100.00
3102;BME280;1561;42.666;23.392;2023-07-16T01:31:02;95414.16;;;23.88;100.00
3102;BME280;1561;42.666;23.392;2023-07-16T01:33:38;95404.34;;;23.83;100.00
3102;BME280;1561;42.666;23.392;2023-07-16T01:36:09;95423.19;;;23.85;100.00
3102;BME280;1561;42.666;23.392;2023-07-16T01:38:44;95404.09;;;23.65;100.00
3102;BME280;1561;42.666;23.392;2023-07-16T01:41:12;95426.59;;;23.73;100.00
3102;BME280;1561;42.666;23.392;2023-07-16T01:43:55;95424.19;;;23.71;100.00
3102;BME280;1561;42.666;23.392;2023-07-16T01:46:26;95429.41;;;23.71;100.00
3102;BME280;1561;42.666;23.392;2023-07-16T01:48:56;95423.38;;;23.64;100.00
3102;BME280;1561;42.666;23.392;2023-07-16T01:51:24;95428.59;;;23.64;100.00
3102;BME280;1561;42.666;23.392;2023-07-16T01:53:53;95428.22;;;23.74;100.00
3102;BME280;1561;42.666;23.392;2023-07-16T01:56:26;95428.78;;;23.76;100.00
3102;BME280;1561;42.666;23.392;2023-07-16T01:58:58;95431.63;;;23.68;100.00
3102;BME280;1561;42.666;23.392;2023-07-16T02:01:33;95435.41;;;23.65;100.00
3102;BME280;1561;42.666;23.392;2023-07-16T02:04:05;95430.56;;;23.49;100.00
3102;BME280;1561;42.666;23.392;2023-07-16T02:06:44;95414.06;;;23.36;100.00
3102;BME280;1561;42.666;23.392;2023-07-16T02:09:16;95420.50;;;23.40;100.00
3102;BME280;1561;42.666;23.392;2023-07-16T02:11:44;95346.91;;;22.84;100.00
3102;BME280;1561;42.666;23.392;2023-07-16T02:14:15;95408.03;;;23.22;100.00
3102;BME280;1561;42.666;23.392;2023-07-16T02:16:45;95403.94;;;23.06;100.00
3102;BME280;1561;42.666;23.392;2023-07-16T02:19:27;95432.72;;;23.26;100.00
3102;BME280;1561;42.666;23.392;2023-07-16T02:21:56;95433.09;;;23.23;100.00
3102;BME280;1561;42.666;23.392;2023-07-16T02:24:30;95437.59;;;23.01;100.00
3102;BME280;1561;42.666;23.392;2023-07-16T02:26:59;95401.97;;;22.68;100.00
3102;BME280;1561;42.666;23.392;2023-07-16T02:29:36;95429.50;;;22.83;100.00
3102;BME280;1561;42.666;23.392;2023-07-16T02:32:27;95437.75;;;22.93;100.00
3102;BME280;1561;42.666;23.392;2023-07-16T02:34:56;95437.97;;;22.98;100.00
3102;BME280;1561;42.666;23.392;2023-07-16T02:37:23;95422.31;;;22.92;100.00
3102;BME280;1561;42.666;23.392;2023-07-16T02:39:56;95433.59;;;22.99;100.00
3102;BME280;1561;42.666;23.392;2023-07-16T02:42:24;95439.38;;;22.94;100.00
3102;BME280;1561;42.666;23.392;2023-07-16T02:44:51;95432.34;;;22.88;100.00
3102;BME280;1561;42.666;23.392;2023-07-16T02:47:23;95428.44;;;22.71;100.00
3102;BME280;1561;42.666;23.392;2023-07-16T02:49:53;95435.06;;;22.74;100.00
3102;BME280;1561;42.666;23.392;2023-07-16T02:52:23;95435.44;;;22.71;100.00
3102;BME280;1561;42.666;23.392;2023-07-16T02:54:53;95435.31;;;22.85;100.00
3102;BME280;1561;42.666;23.392;2023-07-16T02:57:21;95429.09;;;22.86;100.00
3102;BME280;1561;42.666;23.392;2023-07-16T02:59:54;95434.75;;;22.96;100.00
3102;BME280;1561;42.666;23.392;2023-07-16T03:02:21;95434.38;;;22.99;100.00
3102;BME280;1561;42.666;23.392;2023-07-16T03:04:48;95431.22;;;23.10;100.00
3102;BME280;1561;42.666;23.392;2023-07-16T03:07:27;95419.56;;;23.00;100.00
3102;BME280;1561;42.666;23.392;2023-07-16T03:09:55;95353.00;;;22.50;100.00
3102;BME280;1561;42.666;23.392;2023-07-16T03:12:31;95419.34;;;22.95;100.00
3102;BME280;1561;42.666;23.392;2023-07-16T03:15:06;95437.16;;;22.98;100.00
3102;BME280;1561;42.666;23.392;2023-07-16T03:17:40;95429.78;;;23.01;100.00
3102;BME280;1561;42.666;23.392;2023-07-16T03:20:14;95429.84;;;23.14;100.00
3102;BME280;1561;42.666;23.392;2023-07-16T03:22:53;95440.16;;;22.88;100.00
3102;BME280;1561;42.666;23.392;2023-07-16T03:25:28;95447.38;;;22.93;100.00
3102;BME280;1561;42.666;23.392;2023-07-16T03:28:01;95452.00;;;22.97;100.00
3102;BME280;1561;42.666;23.392;2023-07-16T03:30:31;95454.63;;;22.97;100.00
3102;BME280;1561;42.666;23.392;2023-07-16T03:33:07;95455.00;;;22.94;100.00
3102;BME280;1561;42.666;23.392;2023-07-16T03:35:35;95451.88;;;23.18;100.00
3102;BME280;1561;42.666;23.392;2023-07-16T03:38:12;95438.81;;;23.05;100.00
3102;BME280;1561;42.666;23.392;2023-07-16T03:40:57;95450.78;;;23.41;100.00
3102;BME280;1561;42.666;23.392;2023-07-16T03:43:30;95452.25;;;23.63;100.00
3102;BME280;1561;42.666;23.392;2023-07-16T03:46:00;95462.50;;;23.71;100.00
3102;BME280;1561;42.666;23.392;2023-07-16T03:48:27;95456.53;;;23.83;100.00
3102;BME280;1561;42.666;23.392;2023-07-16T03:50:58;95467.81;;;24.23;100.00
3102;BME280;1561;42.666;23.392;2023-07-16T03:53:31;95450.75;;;24.40;100.00
3102;BME280;1561;42.666;23.392;2023-07-16T03:56:15;95291.13;;;23.52;100.00
3102;BME280;1561;42.666;23.392;2023-07-16T03:58:51;95306.16;;;24.02;100.00
3102;BME280;1561;42.666;23.392;2023-07-16T04:01:34;95453.44;;;25.16;100.00
3102;BME280;1561;42.666;23.392;2023-07-16T04:07:36;95454.31;;;25.48;100.00
3102;BME280;1561;42.666;23.392;2023-07-16T04:10:28;95458.16;;;26.14;100.00
3102;BME280;1561;42.666;23.392;2023-07-16T04:12:55;95459.69;;;26.21;100.00
3102;BME280;1561;42.666;23.392;2023-07-16T04:15:27;95459.22;;;26.06;100.00
3102;BME280;1561;42.666;23.392;2023-07-16T04:17:56;95458.50;;;26.24;100.00
3102;BME280;1561;42.666;23.392;2023-07-16T04:20:25;95362.19;;;25.70;100.00
3102;BME280;1561;42.666;23.392;2023-07-16T04:22:54;95470.50;;;26.56;100.00
3102;BME280;1561;42.666;23.392;2023-07-16T04:25:45;95469.84;;;27.03;100.00
3102;BME280;1561;42.666;23.392;2023-07-16T04:28:13;95467.75;;;27.11;100.00
3102;BME280;1561;42.666;23.392;2023-07-16T04:30:48;95474.69;;;26.39;100.00
3102;BME280;1561;42.666;23.392;2023-07-16T04:33:19;95471.91;;;27.01;100.00
3102;BME280;1561;42.666;23.392;2023-07-16T04:35:48;95473.31;;;27.21;100.00
3102;BME280;1561;42.666;23.392;2023-07-16T04:38:17;95475.13;;;27.39;100.00
3102;BME280;1561;42.666;23.392;2023-07-16T04:40:47;95471.78;;;27.32;100.00
3102;BME280;1561;42.666;23.392;2023-07-16T04:43:27;95468.56;;;27.77;100.00
3102;BME280;1561;42.666;23.392;2023-07-16T04:45:55;95473.28;;;27.57;100.00
3102;BME280;1561;42.666;23.392;2023-07-16T04:48:29;95481.78;;;27.41;100.00
3102;BME280;1561;42.666;23.392;2023-07-16T04:51:00;95446.75;;;27.47;100.00
3102;BME280;1561;42.666;23.392;2023-07-16T04:53:49;95475.56;;;28.24;100.00
3102;BME280;1561;42.666;23.392;2023-07-16T04:56:20;95477.59;;;28.11;100.00
3102;BME280;1561;42.666;23.392;2023-07-16T04:58:52;95480.78;;;28.42;100.00
3102;BME280;1561;42.666;23.392;2023-07-16T05:01:22;95488.94;;;27.82;100.00
3102;BME280;1561;42.666;23.392;2023-07-16T05:03:56;95479.56;;;28.68;100.00
3102;BME280;1561;42.666;23.392;2023-07-16T05:06:25;95470.28;;;28.88;100.00
3102;BME280;1561;42.666;23.392;2023-07-16T05:09:04;95481.69;;;29.80;100.00
3102;BME280;1561;42.666;23.392;2023-07-16T05:11:35;95471.16;;;29.68;100.00
3102;BME280;1561;42.666;23.392;2023-07-16T05:14:08;95355.94;;;28.68;100.00
3102;BME280;1561;42.666;23.392;2023-07-16T05:16:36;95484.31;;;28.48;100.00
3102;BME280;1561;42.666;23.392;2023-07-16T05:19:04;95491.00;;;28.73;100.00
3102;BME280;1561;42.666;23.392;2023-07-16T05:21:31;95485.84;;;29.01;100.00
3102;BME280;1561;42.666;23.392;2023-07-16T05:24:05;95484.81;;;29.93;100.00
3102;BME280;1561;42.666;23.392;2023-07-16T05:26:42;95464.91;;;30.14;99.46
3102;BME280;1561;42.666;23.392;2023-07-16T05:29:15;95472.84;;;29.46;100.00
3102;BME280;1561;42.666;23.392;2023-07-16T05:31:45;95388.59;;;29.34;100.00
3102;BME280;1561;42.666;23.392;2023-07-16T05:34:17;95475.78;;;31.00;93.62
3102;BME280;1561;42.666;23.392;2023-07-16T05:36:49;95479.94;;;30.13;100.00
3102;BME280;1561;42.666;23.392;2023-07-16T05:39:20;95471.00;;;30.14;100.00
3102;BME280;1561;42.666;23.392;2023-07-16T05:41:51;95476.94;;;30.38;98.20
3102;BME280;1561;42.666;23.392;2023-07-16T05:44:20;95481.53;;;30.31;100.00
3102;BME280;1561;42.666;23.392;2023-07-16T05:46:48;95479.03;;;31.45;86.75
3102;BME280;1561;42.666;23.392;2023-07-16T05:49:18;95491.59;;;32.92;75.04
3102;BME280;1561;42.666;23.392;2023-07-16T05:51:46;95491.28;;;31.99;80.93
3102;BME280;1561;42.666;23.392;2023-07-16T05:54:16;95492.50;;;31.86;85.86
3102;BME280;1561;42.666;23.392;2023-07-16T05:56:43;95480.88;;;31.66;83.92
3102;BME280;1561;42.666;23.392;2023-07-16T05:59:16;95501.19;;;31.06;90.29
3102;BME280;1561;42.666;23.392;2023-07-16T06:01:46;95499.59;;;31.05;86.34
3102;BME280;1561;42.666;23.392;2023-07-16T06:04:13;95494.50;;;29.76;95.56
3102;BME280;1561;42.666;23.392;2023-07-16T06:06:43;95487.50;;;30.71;91.26
3102;BME280;1561;42.666;23.392;2023-07-16T06:09:11;95482.44;;;30.69;90.77
3102;BME280;1561;42.666;23.392;2023-07-16T06:11:54;95496.22;;;31.09;87.19
3102;BME280;1561;42.666;23.392;2023-07-16T06:14:28;95493.22;;;32.61;76.02
3102;BME280;1561;42.666;23.392;2023-07-16T06:16:58;95489.63;;;33.14;71.34
3102;BME280;1561;42.666;23.392;2023-07-16T06:19:28;95500.47;;;32.76;72.41
3102;BME280;1561;42.666;23.392;2023-07-16T06:21:57;95444.47;;;31.94;76.39
3102;BME280;1561;42.666;23.392;2023-07-16T06:24:26;95494.28;;;33.38;67.85
3102;BME280;1561;42.666;23.392;2023-07-16T06:27:00;95489.47;;;31.78;77.09
3102;BME280;1561;42.666;23.392;2023-07-16T06:29:29;95486.88;;;32.99;72.86
3102;BME280;1561;42.666;23.392;2023-07-16T06:32:00;95426.34;;;32.08;72.31
3102;BME280;1561;42.666;23.392;2023-07-16T06:34:28;95487.91;;;32.93;70.39
3102;BME280;1561;42.666;23.392;2023-07-16T06:37:05;95479.06;;;30.90;83.01
3102;BME280;1561;42.666;23.392;2023-07-16T06:39:38;95428.88;;;30.85;83.22
3102;BME280;1561;42.666;23.392;2023-07-16T06:42:08;95484.47;;;31.17;84.87
3102;BME280;1561;42.666;23.392;2023-07-16T06:44:44;95477.47;;;30.23;91.02
3102;BME280;1561;42.666;23.392;2023-07-16T06:47:14;95461.34;;;31.45;82.08
3102;BME280;1561;42.666;23.392;2023-07-16T06:49:45;95477.06;;;32.94;72.27
3102;BME280;1561;42.666;23.392;2023-07-16T06:52:21;95471.28;;;33.54;65.87
3102;BME280;1561;42.666;23.392;2023-07-16T06:54:50;95472.25;;;33.99;64.59
3102;BME280;1561;42.666;23.392;2023-07-16T06:57:18;95465.09;;;34.00;60.88
3102;BME280;1561;42.666;23.392;2023-07-16T06:59:58;95419.22;;;34.44;59.94
3102;BME280;1561;42.666;23.392;2023-07-16T07:02:29;95443.38;;;32.85;66.30
3102;BME280;1561;42.666;23.392;2023-07-16T07:05:11;95475.47;;;32.62;70.00
3102;BME280;1561;42.666;23.392;2023-07-16T07:07:40;95480.19;;;32.55;72.09
3102;BME280;1561;42.666;23.392;2023-07-16T07:10:15;95469.38;;;32.56;68.62
3102;BME280;1561;42.666;23.392;2023-07-16T07:12:43;95479.28;;;32.39;70.95
3102;BME280;1561;42.666;23.392;2023-07-16T07:15:20;95476.09;;;32.11;72.74
3102;BME280;1561;42.666;23.392;2023-07-16T07:17:55;95454.25;;;32.88;66.72
3102;BME280;1561;42.666;23.392;2023-07-16T07:20:24;95477.22;;;32.20;72.26
3102;BME280;1561;42.666;23.392;2023-07-16T07:22:52;95479.09;;;32.51;70.91
3102;BME280;1561;42.666;23.392;2023-07-16T07:25:20;95478.34;;;33.95;63.18
3102;BME280;1561;42.666;23.392;2023-07-16T07:27:51;95465.31;;;35.24;57.83
3102;BME280;1561;42.666;23.392;2023-07-16T07:30:28;95465.53;;;35.47;55.12
3102;BME280;1561;42.666;23.392;2023-07-16T07:32:57;95460.03;;;35.14;56.10
3102;BME280;1561;42.666;23.392;2023-07-16T07:35:27;95468.19;;;33.77;62.37
3102;BME280;1561;42.666;23.392;2023-07-16T07:38:03;95475.50;;;34.56;59.20
3102;BME280;1561;42.666;23.392;2023-07-16T07:40:31;95471.25;;;34.40;60.25
3102;BME280;1561;42.666;23.392;2023-07-16T07:43:13;95465.66;;;34.27;60.55
3102;BME280;1561;42.666;23.392;2023-07-16T07:45:48;95463.41;;;36.03;53.95
3102;BME280;1561;42.666;23.392;2023-07-16T07:48:18;95460.09;;;34.73;59.38
3102;BME280;1561;42.666;23.392;2023-07-16T07:50:47;95464.41;;;36.84;52.46
3102;BME280;1561;42.666;23.392;2023-07-16T07:53:16;95459.66;;;37.33;50.20
3102;BME280;1561;42.666;23.392;2023-07-16T07:55:49;95465.38;;;34.28;60.45
3102;BME280;1561;42.666;23.392;2023-07-16T07:58:16;95465.88;;;33.95;61.67
3102;BME280;1561;42.666;23.392;2023-07-16T08:00:46;95467.00;;;34.49;61.70
3102;BME280;1561;42.666;23.392;2023-07-16T08:03:16;95457.59;;;33.20;67.42
3102;BME280;1561;42.666;23.392;2023-07-16T08:05:49;95463.28;;;34.60;60.72
3102;BME280;1561;42.666;23.392;2023-07-16T08:08:18;95464.75;;;35.42;58.30
3102;BME280;1561;42.666;23.392;2023-07-16T08:10:46;95465.69;;;35.71;56.30
3102;BME280;1561;42.666;23.392;2023-07-16T08:13:16;95465.97;;;36.18;53.58
3102;BME280;1561;42.666;23.392;2023-07-16T08:15:57;95459.66;;;36.04;53.35
3102;BME280;1561;42.666;23.392;2023-07-16T08:18:25;95457.88;;;35.26;57.40
3102;BME280;1561;42.666;23.392;2023-07-16T08:20:55;95396.91;;;36.65;50.37
3102;BME280;1561;42.666;23.392;2023-07-16T08:23:37;95459.78;;;35.10;57.00
3102;BME280;1561;42.666;23.392;2023-07-16T08:26:04;95466.94;;;36.37;53.60
3102;BME280;1561;42.666;23.392;2023-07-16T08:28:33;95467.38;;;36.82;52.54
3102;BME280;1561;42.666;23.392;2023-07-16T08:31:05;95466.38;;;35.43;56.90
3102;BME280;1561;42.666;23.392;2023-07-16T08:33:35;95465.78;;;35.51;56.04
3102;BME280;1561;42.666;23.392;2023-07-16T08:36:02;95461.66;;;34.19;61.09
3102;BME280;1561;42.666;23.392;2023-07-16T08:38:32;95465.06;;;35.20;58.16
3102;BME280;1561;42.666;23.392;2023-07-16T08:41:04;95466.13;;;35.19;59.40
3102;BME280;1561;42.666;23.392;2023-07-16T08:43:46;95468.31;;;34.67;59.41
3102;BME280;1561;42.666;23.392;2023-07-16T08:46:26;95454.81;;;36.16;56.71
3102;BME280;1561;42.666;23.392;2023-07-16T08:48:59;95454.78;;;36.21;53.65
3102;BME280;1561;42.666;23.392;2023-07-16T08:51:39;95450.06;;;36.46;53.97
3102;BME280;1561;42.666;23.392;2023-07-16T08:54:09;95453.44;;;36.23;54.59
3102;BME280;1561;42.666;23.392;2023-07-16T08:56:41;95457.91;;;36.33;54.40
3102;BME280;1561;42.666;23.392;2023-07-16T08:59:12;95449.94;;;37.65;51.00
3102;BME280;1561;42.666;23.392;2023-07-16T09:01:47;95456.13;;;37.37;51.37
3102;BME280;1561;42.666;23.392;2023-07-16T09:04:15;95446.06;;;35.62;56.28
3102;BME280;1561;42.666;23.392;2023-07-16T09:06:59;95450.34;;;36.06;54.83
3102;BME280;1561;42.666;23.392;2023-07-16T09:09:31;95436.41;;;37.57;50.05
3102;BME280;1561;42.666;23.392;2023-07-16T09:12:01;95448.28;;;36.70;52.56
3102;BME280;1561;42.666;23.392;2023-07-16T09:14:29;95443.19;;;36.02;55.98
3102;BME280;1561;42.666;23.392;2023-07-16T09:17:21;95433.00;;;35.65;56.74
3102;BME280;1561;42.666;23.392;2023-07-16T09:19:52;95438.91;;;36.78;53.33
3102;BME280;1561;42.666;23.392;2023-07-16T09:22:26;95445.69;;;36.32;55.79
3102;BME280;1561;42.666;23.392;2023-07-16T09:24:56;95434.09;;;36.08;55.80
3102;BME280;1561;42.666;23.392;2023-07-16T09:27:28;95442.88;;;36.47;52.48
3102;BME280;1561;42.666;23.392;2023-07-16T09:29:55;95449.72;;;35.71;57.97
3102;BME280;1561;42.666;23.392;2023-07-16T09:32:35;95438.91;;;36.44;55.36
3102;BME280;1561;42.666;23.392;2023-07-16T09:35:10;95424.69;;;37.34;51.96
3102;BME280;1561;42.666;23.392;2023-07-16T09:37:41;95419.53;;;37.66;50.90
3102;BME280;1561;42.666;23.392;2023-07-16T09:40:12;95421.97;;;38.18;48.52
3102;BME280;1561;42.666;23.392;2023-07-16T09:42:56;95430.47;;;36.32;53.46
3102;BME280;1561;42.666;23.392;2023-07-16T09:45:23;95423.41;;;36.13;57.21
3102;BME280;1561;42.666;23.392;2023-07-16T09:47:52;95421.44;;;35.90;57.45
3102;BME280;1561;42.666;23.392;2023-07-16T09:50:25;95419.13;;;37.07;54.12
3102;BME280;1561;42.666;23.392;2023-07-16T09:52:59;95422.59;;;36.17;55.67
3102;BME280;1561;42.666;23.392;2023-07-16T09:55:32;95409.81;;;37.52;51.45
3102;BME280;1561;42.666;23.392;2023-07-16T09:58:12;95425.19;;;38.02;50.27
3102;BME280;1561;42.666;23.392;2023-07-16T10:00:55;95423.31;;;37.18;53.35
3102;BME280;1561;42.666;23.392;2023-07-16T10:03:29;95410.50;;;38.36;49.38
3102;BME280;1561;42.666;23.392;2023-07-16T10:06:05;95412.91;;;37.64;52.09
3102;BME280;1561;42.666;23.392;2023-07-16T10:08:35;95402.09;;;37.74;50.62
3102;BME280;1561;42.666;23.392;2023-07-16T10:11:03;95415.44;;;37.92;49.38
3102;BME280;1561;42.666;23.392;2023-07-16T10:13:30;95405.53;;;37.93;51.43
3102;BME280;1561;42.666;23.392;2023-07-16T10:16:00;95406.53;;;37.97;50.03
3102;BME280;1561;42.666;23.392;2023-07-16T10:18:49;95406.97;;;34.99;60.78
3102;BME280;1561;42.666;23.392;2023-07-16T10:21:23;95395.44;;;36.20;58.18
3102;BME280;1561;42.666;23.392;2023-07-16T10:23:57;95386.09;;;36.85;55.17
3102;BME280;1561;42.666;23.392;2023-07-16T10:26:27;95397.78;;;36.89;53.39
3102;BME280;1561;42.666;23.392;2023-07-16T10:29:00;95400.34;;;37.41;52.41
3102;BME280;1561;42.666;23.392;2023-07-16T10:31:27;95400.81;;;36.77;54.62
3102;BME280;1561;42.666;23.392;2023-07-16T10:34:02;95390.28;;;37.38;52.33
3102;BME280;1561;42.666;23.392;2023-07-16T10:36:37;95384.16;;;36.62;54.38
3102;BME280;1561;42.666;23.392;2023-07-16T10:39:10;95373.44;;;35.03;60.67
3102;BME280;1561;42.666;23.392;2023-07-16T10:41:38;95389.94;;;36.07;56.65
3102;BME280;1561;42.666;23.392;2023-07-16T10:44:10;95381.84;;;37.49;50.89
3102;BME280;1561;42.666;23.392;2023-07-16T10:46:47;95381.44;;;36.95;51.65
3102;BME280;1561;42.666;23.392;2023-07-16T10:49:35;95391.41;;;36.85;50.44
3102;BME280;1561;42.666;23.392;2023-07-16T10:52:04;95381.16;;;36.73;51.64
3102;BME280;1561;42.666;23.392;2023-07-16T10:54:31;95381.19;;;36.92;51.76
3102;BME280;1561;42.666;23.392;2023-07-16T10:57:00;95388.41;;;38.31;49.46
3102;BME280;1561;42.666;23.392;2023-07-16T10:59:32;95372.28;;;37.85;48.77
3102;BME280;1561;42.666;23.392;2023-07-16T11:02:05;95382.50;;;37.41;49.57
3102;BME280;1561;42.666;23.392;2023-07-16T11:04:49;95374.81;;;37.16;51.17
3102;BME280;1561;42.666;23.392;2023-07-16T11:07:16;95381.56;;;35.90;56.32
3102;BME280;1561;42.666;23.392;2023-07-16T11:09:47;95368.22;;;36.33;55.18
3102;BME280;1561;42.666;23.392;2023-07-16T11:12:18;95369.97;;;36.95;53.07
3102;BME280;1561;42.666;23.392;2023-07-16T11:14:47;95361.84;;;36.58;51.22
3102;BME280;1561;42.666;23.392;2023-07-16T11:17:17;95342.47;;;35.42;54.41
3102;BME280;1561;42.666;23.392;2023-07-16T11:19:49;95362.50;;;35.29;56.76
3102;BME280;1561;42.666;23.392;2023-07-16T11:22:26;95355.03;;;36.13;54.00
3102;BME280;1561;42.666;23.392;2023-07-16T11:24:54;95357.75;;;35.70;54.06
3102;BME280;1561;42.666;23.392;2023-07-16T11:27:26;95361.22;;;36.04;51.58
3102;BME280;1561;42.666;23.392;2023-07-16T11:30:01;95310.72;;;35.60;53.23
3102;BME280;1561;42.666;23.392;2023-07-16T11:32:37;95357.50;;;36.05;52.46
3102;BME280;1561;42.666;23.392;2023-07-16T11:35:15;95360.13;;;35.76;52.68
3102;BME280;1561;42.666;23.392;2023-07-16T11:37:45;95327.78;;;36.55;50.35
3102;BME280;1561;42.666;23.392;2023-07-16T11:40:17;95346.47;;;36.50;49.79
3102;BME280;1561;42.666;23.392;2023-07-16T11:42:45;95336.66;;;36.74;49.51
3102;BME280;1561;42.666;23.392;2023-07-16T11:45:18;95343.91;;;36.68;49.54
3102;BME280;1561;42.666;23.392;2023-07-16T11:47:49;95292.88;;;35.27;51.81
3102;BME280;1561;42.666;23.392;2023-07-16T11:50:41;95341.72;;;35.26;54.09
3102;BME280;1561;42.666;23.392;2023-07-16T11:53:09;95351.75;;;35.93;52.08
3102;BME280;1561;42.666;23.392;2023-07-16T11:55:37;95349.63;;;34.88;54.37
3102;BME280;1561;42.666;23.392;2023-07-16T11:58:06;95345.38;;;35.89;51.66
3102;BME280;1561;42.666;23.392;2023-07-16T12:00:34;95346.25;;;35.36;52.40
3102;BME280;1561;42.666;23.392;2023-07-16T12:03:03;95335.44;;;35.66;51.84
3102;BME280;1561;42.666;23.392;2023-07-16T12:05:37;95344.31;;;35.90;49.93
3102;BME280;1561;42.666;23.392;2023-07-16T12:08:07;95342.56;;;36.09;49.69
3102;BME280;1561;42.666;23.392;2023-07-16T12:10:39;95338.22;;;36.23;50.86
3102;BME280;1561;42.666;23.392;2023-07-16T12:13:13;95334.16;;;35.97;49.02
3102;BME280;1561;42.666;23.392;2023-07-16T12:15:43;95335.63;;;36.41;48.42
3102;BME280;1561;42.666;23.392;2023-07-16T12:18:11;95328.72;;;36.69;47.53
3102;BME280;1561;42.666;23.392;2023-07-16T12:20:43;95337.25;;;36.42;47.73
3102;BME280;1561;42.666;23.392;2023-07-16T12:23:13;95319.69;;;37.12;47.02
3102;BME280;1561;42.666;23.392;2023-07-16T12:25:45;95316.78;;;37.50;45.46
3102;BME280;1561;42.666;23.392;2023-07-16T12:28:15;95312.09;;;37.24;45.71
3102;BME280;1561;42.666;23.392;2023-07-16T12:30:48;95322.81;;;35.43;48.00
3102;BME280;1561;42.666;23.392;2023-07-16T12:33:15;95322.88;;;35.33;48.61
3102;BME280;1561;42.666;23.392;2023-07-16T12:35:46;95330.19;;;35.51;48.03
3102;BME280;1561;42.666;23.392;2023-07-16T12:38:14;95327.03;;;35.87;47.22
3102;BME280;1561;42.666;23.392;2023-07-16T12:40:42;95320.81;;;35.63;46.73
3102;BME280;1561;42.666;23.392;2023-07-16T12:43:09;95318.59;;;35.80;45.30
3102;BME280;1561;42.666;23.392;2023-07-16T12:45:39;95312.81;;;35.30;45.92
3102;BME280;1561;42.666;23.392;2023-07-16T12:48:16;95314.53;;;35.49;44.55
3102;BME280;1561;42.666;23.392;2023-07-16T12:50:46;95305.00;;;36.44;43.31
3102;BME280;1561;42.666;23.392;2023-07-16T12:53:14;95315.19;;;35.75;45.05
3102;BME280;1561;42.666;23.392;2023-07-16T12:55:48;95301.63;;;35.66;44.94
3102;BME280;1561;42.666;23.392;2023-07-16T12:58:34;95298.94;;;36.67;43.46
3102;BME280;1561;42.666;23.392;2023-07-16T13:01:02;95280.38;;;36.80;41.91
3102;BME280;1561;42.666;23.392;2023-07-16T13:03:31;95295.41;;;36.14;43.30
3102;BME280;1561;42.666;23.392;2023-07-16T13:06:00;95305.56;;;34.82;45.07
3102;BME280;1561;42.666;23.392;2023-07-16T13:08:29;95294.41;;;34.79;45.60
3102;BME280;1561;42.666;23.392;2023-07-16T13:11:01;95299.03;;;34.39;45.21
3102;BME280;1561;42.666;23.392;2023-07-16T13:13:30;95288.59;;;35.26;44.76
3102;BME280;1561;42.666;23.392;2023-07-16T13:15:59;95300.09;;;35.60;43.62
3102;BME280;1561;42.666;23.392;2023-07-16T13:18:27;95299.97;;;36.14;42.12
3102;BME280;1561;42.666;23.392;2023-07-16T13:20:57;95290.00;;;36.24;42.46
3102;BME280;1561;42.666;23.392;2023-07-16T13:23:35;95295.47;;;35.37;41.95
3102;BME280;1561;42.666;23.392;2023-07-16T13:26:07;95300.81;;;35.76;41.95
3102;BME280;1561;42.666;23.392;2023-07-16T13:28:34;95243.59;;;34.96;42.69
3102;BME280;1561;42.666;23.392;2023-07-16T13:31:08;95294.28;;;35.10;44.16
3102;BME280;1561;42.666;23.392;2023-07-16T13:33:37;95294.91;;;35.40;43.66
3102;BME280;1561;42.666;23.392;2023-07-16T13:36:07;95282.38;;;35.02;44.74
3102;BME280;1561;42.666;23.392;2023-07-16T13:38:35;95285.97;;;34.52;45.31
3102;BME280;1561;42.666;23.392;2023-07-16T13:41:04;95293.75;;;35.03;44.69
3102;BME280;1561;42.666;23.392;2023-07-16T13:43:36;95283.75;;;34.90;44.86
3102;BME280;1561;42.666;23.392;2023-07-16T13:46:11;95250.00;;;34.90;45.34